createdAt,value
2023-03-02T00:02:23.331Z,76.3
2023-03-02T00:20:49.547Z,76.4
2023-03-02T00:26:56.280Z,76.6
2023-03-02T00:32:46.872Z,76.7
2023-03-02T00:38:37.483Z,77.7
2023-03-02T00:44:27.301Z,77.7
2023-03-02T00:50:16.512Z,77.4
2023-03-02T00:56:18.518Z,77.2
2023-03-02T01:02:10.379Z,78.4
2023-03-02T01:08:00.480Z,79.4
2023-03-02T01:13:51.773Z,78.6
2023-03-02T01:19:41.785Z,78.3
2023-03-02T01:25:44.318Z,78.4
2023-03-02T01:31:33.365Z,78.9
2023-03-02T01:37:29.046Z,78.4
2023-03-02T01:43:17.564Z,78.3
2023-03-02T01:49:07.666Z,77.9
2023-03-02T01:55:00.265Z,78.5
2023-03-02T02:00:56.598Z,78.7
2023-03-02T02:06:45.109Z,79.3
2023-03-02T02:12:37.597Z,78.9
2023-03-02T02:18:36.214Z,79.6
2023-03-02T02:24:27.986Z,80.6
2023-03-02T02:30:17.839Z,79.6
2023-03-02T02:36:09.689Z,79.8
2023-03-02T02:42:07.921Z,81.1
2023-03-02T02:47:57.778Z,80
2023-03-02T02:53:47.101Z,80.4
2023-03-02T03:00:02.989Z,80
2023-03-02T03:06:11.539Z,80.5
2023-03-02T03:18:17.109Z,80.9
2023-03-02T03:24:06.767Z,80.9
2023-03-02T03:29:58.895Z,80.6
2023-03-02T03:35:49.871Z,81.2
2023-03-02T07:13:51.955Z,83.8
2023-03-02T07:26:25.819Z,86.4
2023-03-02T07:39:14.492Z,83.6
2023-03-02T07:45:37.454Z,82.4
2023-03-02T07:51:37.850Z,83.3
2023-03-02T08:33:27.352Z,81.7
2023-03-02T08:40:10.467Z,81.7
2023-03-02T08:47:01.258Z,82.2
2023-03-02T08:52:57.830Z,82.3
2023-03-02T08:58:50.884Z,79.3
2023-03-02T09:41:47.344Z,68.5
2023-03-02T09:47:43.208Z,68.6
2023-03-02T09:53:34.414Z,67.3
2023-03-02T09:59:25.299Z,68.1
2023-03-02T10:05:17.468Z,66.2
2023-03-02T10:11:08.093Z,66.4
2023-03-02T10:17:03.922Z,65.7
2023-03-02T10:22:54.675Z,66.2
2023-03-02T10:28:49.263Z,64.1
2023-03-02T10:34:46.596Z,65
2023-03-02T10:40:36.769Z,65.1
2023-03-02T10:46:29.566Z,63.4
2023-03-02T10:52:24.635Z,63.9
2023-03-02T10:58:44.113Z,62.7
2023-03-02T11:04:47.050Z,62.2
2023-03-02T11:10:52.543Z,61.6
2023-03-02T11:16:51.050Z,60.5
2023-03-02T11:22:45.294Z,59.6
2023-03-02T11:28:36.364Z,58.6
2023-03-02T11:34:27.964Z,57.6
2023-03-02T11:40:31.555Z,57.4
2023-03-02T11:46:46.810Z,55.5
2023-03-02T11:52:38.538Z,55.8
2023-03-02T11:58:31.393Z,55.1
2023-03-02T12:04:39.314Z,55.7
2023-03-02T12:10:40.656Z,54.4
2023-03-02T12:16:35.417Z,52.8
2023-03-02T12:22:28.383Z,54.1
2023-03-02T12:28:24.980Z,53.6
2023-03-02T12:34:20.678Z,53.1
2023-03-02T12:40:21.589Z,52.5
2023-03-02T12:46:15.660Z,52.2
2023-03-02T12:52:06.524Z,51.7
2023-03-02T12:57:59.409Z,52.9
2023-03-02T13:03:50.277Z,52.5
2023-03-02T13:09:58.995Z,51.9
2023-03-02T13:15:57.316Z,51.4
2023-03-02T13:21:51.148Z,51.4
2023-03-02T13:27:44.444Z,50
2023-03-02T13:33:40.562Z,50.1
2023-03-02T13:39:41.520Z,50.2
2023-03-02T13:45:35.496Z,49.7
2023-03-02T13:51:26.477Z,49.5
2023-03-02T13:57:18.605Z,49.3
2023-03-02T14:03:09.303Z,49.3
2023-03-02T14:09:01.455Z,48.6
2023-03-02T14:14:56.538Z,49.2
2023-03-02T14:20:52.317Z,48.1
2023-03-02T14:26:48.096Z,47.3
2023-03-02T14:32:41.528Z,47.7
2023-03-02T14:38:36.195Z,47.8
2023-03-02T14:44:27.376Z,47.7
2023-03-02T14:50:19.393Z,48.2
2023-03-02T14:56:10.766Z,47.8
2023-03-02T15:02:27.237Z,47.1
2023-03-02T15:08:20.937Z,47.7
2023-03-02T15:14:38.419Z,48.7
2023-03-02T15:20:31.294Z,47.6
2023-03-02T15:26:26.728Z,47.5
2023-03-02T15:32:18.166Z,46.8
2023-03-02T15:38:11.556Z,46.6
2023-03-02T15:44:03.148Z,47.2
2023-03-02T15:49:54.765Z,46.8
2023-03-02T15:55:46.450Z,47.4
2023-03-02T16:01:38.074Z,47.2
2023-03-02T16:07:31.304Z,46.7
2023-03-02T16:37:12.245Z,49.4
2023-03-02T16:49:17.749Z,51.8
2023-03-02T17:27:24.765Z,57
2023-03-02T17:33:29.277Z,57.1
2023-03-02T17:39:34.677Z,58.6
2023-03-02T18:39:11.156Z,66.3
2023-03-02T18:56:59.494Z,67.8
2023-03-02T19:21:54.160Z,70.3
2023-03-02T19:28:09.694Z,70.1
2023-03-02T19:34:18.852Z,70
2023-03-02T19:53:08.945Z,71.2
2023-03-02T20:06:24.168Z,71.7
2023-03-02T20:18:10.360Z,71.7
2023-03-02T20:30:53.796Z,69.6
2023-03-02T21:01:32.708Z,71.5
